createdAt,value
2018-09-24T00:02:12.535Z,9.80
2018-09-24T00:04:41.046Z,9.70
2018-09-24T00:07:09.574Z,9.70
2018-09-24T00:09:38.040Z,9.60
2018-09-24T00:12:06.543Z,9.60
2018-09-24T00:14:35.102Z,9.60
2018-09-24T00:17:03.710Z,9.60
2018-09-24T00:19:32.226Z,9.60
2018-09-24T00:22:00.703Z,9.60
2018-09-24T00:24:29.214Z,9.60
2018-09-24T00:26:57.731Z,9.60
2018-09-24T00:29:26.270Z,9.60
2018-09-24T00:31:54.808Z,9.60
2018-09-24T00:34:23.289Z,9.60
2018-09-24T00:36:51.793Z,9.70
2018-09-24T00:39:20.290Z,9.50
2018-09-24T00:41:48.814Z,9.50
2018-09-24T00:44:17.376Z,9.40
2018-09-24T00:46:45.914Z,9.30
2018-09-24T00:49:14.446Z,9.30
2018-09-24T00:51:42.958Z,9.30
2018-09-24T00:54:12.202Z,9.30
2018-09-24T00:56:40.681Z,9.30
2018-09-24T00:59:09.604Z,9.30
2018-09-24T01:01:38.089Z,9.30
2018-09-24T01:04:06.841Z,9.30
2018-09-24T01:06:35.366Z,9.60
2018-09-24T01:09:12.014Z,9.50
2018-09-24T01:11:40.642Z,9.40
2018-09-24T01:14:09.227Z,9.40
2018-09-24T01:16:37.760Z,9.50
2018-09-24T01:19:06.283Z,9.60
2018-09-24T01:21:34.859Z,9.50
2018-09-24T01:24:03.448Z,9.30
2018-09-24T01:26:31.944Z,9.40
2018-09-24T01:29:07.185Z,9.40
2018-09-24T01:31:35.710Z,9.30
2018-09-24T01:34:04.177Z,9.40
2018-09-24T01:36:32.694Z,9.50
2018-09-24T01:39:01.199Z,9.30
2018-09-24T01:41:29.753Z,9.10
2018-09-24T01:43:58.229Z,9.10
2018-09-24T01:46:26.821Z,9.10
2018-09-24T01:48:55.279Z,9.20
2018-09-24T01:51:29.467Z,9.10
2018-09-24T01:53:58.011Z,9.10
2018-09-24T01:56:26.472Z,9.10
2018-09-24T01:58:54.981Z,9.10
2018-09-24T02:01:23.513Z,9.10
2018-09-24T02:03:52.041Z,9.10
2018-09-24T02:06:20.587Z,9.00
2018-09-24T02:08:49.115Z,9.00
2018-09-24T02:11:17.618Z,8.90
2018-09-24T02:13:52.542Z,8.90
2018-09-24T02:16:21.540Z,8.90
2018-09-24T02:18:50.434Z,8.90
2018-09-24T02:21:19.041Z,8.90
2018-09-24T02:23:47.579Z,8.90
2018-09-24T02:26:16.141Z,8.80
2018-09-24T02:28:44.570Z,8.80
2018-09-24T02:31:13.080Z,8.80
2018-09-24T02:33:41.574Z,8.70
2018-09-24T02:36:13.163Z,8.70
2018-09-24T02:38:42.022Z,8.70
2018-09-24T02:41:10.566Z,8.70
2018-09-24T02:43:39.099Z,8.70
2018-09-24T02:46:07.602Z,8.70
2018-09-24T02:48:36.125Z,8.80
2018-09-24T02:51:04.739Z,8.70
2018-09-24T02:53:38.142Z,8.70
2018-09-24T02:56:06.927Z,8.60
2018-09-24T02:58:35.443Z,8.60
2018-09-24T03:01:03.991Z,8.60
2018-09-24T03:03:32.469Z,8.90
2018-09-24T03:06:00.979Z,8.80
2018-09-24T03:08:29.465Z,8.80
2018-09-24T03:11:03.451Z,8.90
2018-09-24T03:13:32.083Z,8.60
2018-09-24T03:16:00.623Z,8.60
2018-09-24T03:18:29.098Z,8.50
2018-09-24T03:20:57.610Z,8.50
2018-09-24T03:23:26.121Z,8.50
2018-09-24T03:25:54.647Z,8.50
2018-09-24T03:28:23.178Z,8.50
2018-09-24T03:30:51.624Z,8.50
2018-09-24T03:33:20.169Z,8.70
2018-09-24T03:35:48.653Z,8.40
2018-09-24T03:38:17.220Z,8.30
2018-09-24T03:40:45.749Z,8.50
2018-09-24T03:43:14.222Z,8.60
2018-09-24T03:45:42.784Z,8.60
2018-09-24T03:48:11.335Z,8.50
2018-09-24T03:50:39.858Z,8.50
2018-09-24T03:53:08.312Z,8.60
2018-09-24T03:55:36.843Z,8.50
2018-09-24T03:58:05.423Z,8.50
2018-09-24T04:00:33.965Z,8.40
2018-09-24T04:03:02.496Z,8.40
2018-09-24T04:05:36.216Z,8.50
2018-09-24T04:08:10.109Z,8.50
2018-09-24T04:10:44.094Z,8.40
2018-09-24T04:13:17.888Z,8.30
2018-09-24T04:15:51.685Z,8.40
2018-09-24T04:18:25.591Z,8.50
2018-09-24T04:20:59.417Z,8.50
2018-09-24T04:23:33.350Z,8.40
2018-09-24T04:26:07.153Z,8.40
2018-09-24T04:28:41.035Z,8.50
2018-09-24T04:31:15.475Z,8.30
2018-09-24T04:33:49.297Z,8.30
2018-09-24T04:36:23.183Z,8.30
2018-09-24T04:38:57.004Z,8.20
2018-09-24T04:41:30.962Z,8.20
2018-09-24T04:44:04.836Z,8.20
2018-09-24T04:46:38.626Z,8.20
2018-09-24T04:49:12.626Z,8.30
2018-09-24T04:51:46.477Z,8.20
2018-09-24T04:54:20.475Z,8.20
2018-09-24T04:56:54.260Z,8.20
2018-09-24T04:59:28.036Z,8.20
2018-09-24T05:02:01.835Z,8.40
2018-09-24T05:04:35.723Z,8.30
2018-09-24T05:07:09.486Z,8.40
2018-09-24T05:09:43.453Z,8.40
2018-09-24T05:12:17.201Z,8.50
2018-09-24T05:14:51.140Z,8.50
2018-09-24T05:17:24.960Z,8.60
2018-09-24T05:19:58.752Z,8.50
2018-09-24T05:22:32.322Z,8.60
2018-09-24T05:25:06.249Z,8.60
2018-09-24T05:27:40.135Z,8.60
2018-09-24T05:30:13.880Z,8.50
2018-09-24T05:32:47.610Z,8.70
2018-09-24T05:35:21.516Z,8.50
2018-09-24T05:37:55.412Z,8.50
2018-09-24T05:40:29.318Z,8.60
2018-09-24T05:43:03.281Z,8.70
2018-09-24T05:45:37.154Z,8.60
2018-09-24T05:48:11.162Z,8.60
2018-09-24T05:50:44.936Z,8.60
2018-09-24T05:53:18.686Z,8.40
2018-09-24T05:55:52.493Z,8.40
2018-09-24T05:58:26.199Z,8.50
2018-09-24T06:00:59.790Z,8.40
2018-09-24T06:03:33.718Z,8.30
2018-09-24T06:06:07.510Z,8.40
2018-09-24T06:08:41.199Z,8.50
2018-09-24T06:11:15.004Z,8.50
2018-09-24T06:13:48.824Z,8.60
2018-09-24T06:16:22.705Z,8.70
2018-09-24T06:18:56.523Z,8.90
2018-09-24T06:21:30.447Z,8.70
2018-09-24T06:24:04.436Z,8.60
2018-09-24T06:26:38.339Z,8.70
2018-09-24T06:29:12.140Z,8.80
2018-09-24T06:31:46.060Z,8.70
2018-09-24T06:34:19.951Z,8.70
2018-09-24T06:36:53.658Z,8.80
2018-09-24T06:39:27.410Z,8.90
2018-09-24T06:42:01.331Z,8.90
2018-09-24T06:44:35.088Z,9.00
2018-09-24T06:47:09.017Z,9.00
2018-09-24T06:49:42.856Z,9.10
2018-09-24T06:52:16.636Z,9.00
2018-09-24T06:54:50.523Z,9.00
2018-09-24T06:57:24.332Z,9.00
2018-09-24T06:59:58.286Z,9.00
2018-09-24T07:02:32.142Z,9.00
2018-09-24T07:05:06.057Z,9.00
2018-09-24T07:07:39.824Z,9.00
2018-09-24T07:10:13.591Z,9.00
2018-09-24T07:12:47.327Z,9.10
2018-09-24T07:15:21.166Z,9.20
2018-09-24T07:17:54.913Z,9.40
2018-09-24T07:20:28.650Z,9.50
2018-09-24T07:23:02.508Z,9.60
2018-09-24T07:25:36.383Z,9.70
2018-09-24T07:28:10.408Z,9.80
2018-09-24T07:30:44.218Z,10.00
2018-09-24T07:33:18.172Z,10.00
2018-09-24T07:35:51.982Z,9.90
2018-09-24T07:38:25.869Z,9.90
2018-09-24T07:40:59.663Z,10.10
2018-09-24T07:43:33.490Z,10.10
2018-09-24T07:46:07.288Z,10.00
2018-09-24T07:48:41.280Z,10.20
2018-09-24T07:51:15.030Z,10.30
2018-09-24T07:53:48.877Z,10.60
2018-09-24T07:56:22.662Z,10.50
2018-09-24T07:58:56.607Z,10.60
2018-09-24T08:01:30.361Z,10.60
2018-09-24T08:04:04.297Z,10.60
2018-09-24T08:06:38.061Z,10.90
2018-09-24T08:15:05.444Z,10.90
2018-09-24T08:17:39.388Z,11.00
2018-09-24T08:20:13.263Z,10.80
2018-09-24T08:22:47.149Z,10.60
2018-09-24T08:25:20.887Z,10.90
2018-09-24T08:27:54.792Z,10.90
2018-09-24T08:30:28.683Z,10.90
2018-09-24T08:33:02.779Z,10.80
2018-09-24T08:35:36.638Z,10.80
2018-09-24T08:38:10.655Z,10.70
2018-09-24T08:40:44.536Z,10.70
2018-09-24T08:43:18.252Z,10.80
2018-09-24T08:45:52.245Z,10.90
2018-09-24T08:48:26.080Z,10.90
2018-09-24T08:51:00.009Z,11.00
2018-09-24T08:53:33.894Z,10.90
2018-09-24T08:56:07.810Z,10.90
2018-09-24T08:58:41.707Z,10.90
2018-09-24T09:01:15.552Z,11.00
2018-09-24T09:03:49.468Z,11.10
2018-09-24T09:06:23.164Z,11.10
2018-09-24T09:08:56.942Z,11.00
2018-09-24T09:11:30.676Z,11.40
2018-09-24T09:14:04.465Z,11.70
2018-09-24T09:16:38.142Z,11.60
2018-09-24T09:19:12.224Z,11.50
2018-09-24T09:21:45.931Z,11.60
2018-09-24T09:24:19.670Z,11.80
2018-09-24T09:26:53.561Z,11.90
2018-09-24T09:29:27.452Z,11.80
2018-09-24T09:32:01.330Z,12.00
2018-09-24T09:34:35.212Z,12.60
2018-09-24T09:37:08.973Z,12.50
2018-09-24T09:39:42.661Z,12.70
2018-09-24T09:42:16.417Z,12.60
2018-09-24T09:44:50.326Z,12.10
2018-09-24T09:47:24.313Z,12.30
2018-09-24T09:49:58.056Z,12.90
2018-09-24T09:52:31.993Z,12.80
2018-09-24T09:55:05.922Z,12.90
2018-09-24T09:57:39.729Z,12.80
2018-09-24T10:00:18.339Z,12.80
2018-09-24T10:02:51.996Z,13.30
2018-09-24T10:05:25.832Z,14.30
2018-09-24T10:08:06.984Z,13.80
2018-09-24T10:10:40.765Z,13.20
2018-09-24T10:13:14.572Z,13.00
2018-09-24T10:15:48.476Z,13.20
2018-09-24T10:18:22.383Z,13.30
2018-09-24T10:20:56.150Z,13.00
2018-09-24T10:23:29.873Z,12.60
2018-09-24T10:26:03.670Z,12.30
2018-09-24T10:28:37.302Z,12.70
2018-09-24T10:31:11.104Z,13.20
2018-09-24T10:33:45.059Z,13.80
2018-09-24T10:36:18.916Z,13.90
2018-09-24T10:38:52.851Z,13.80
2018-09-24T10:41:26.759Z,13.90
2018-09-24T10:44:00.541Z,14.10
2018-09-24T10:46:34.369Z,14.00
2018-09-24T10:49:08.098Z,14.10
2018-09-24T10:51:42.000Z,14.00
2018-09-24T10:54:18.633Z,14.30
2018-09-24T10:56:52.358Z,14.50
2018-09-24T10:59:26.208Z,14.50
2018-09-24T11:02:00.047Z,14.20
2018-09-24T11:04:33.876Z,13.50
2018-09-24T11:07:07.664Z,13.50
2018-09-24T11:09:41.581Z,14.00
2018-09-24T11:12:15.482Z,14.40
2018-09-24T11:14:49.432Z,14.20
2018-09-24T11:17:23.474Z,14.50
2018-09-24T11:19:57.277Z,14.20
2018-09-24T11:22:31.098Z,13.90
2018-09-24T11:25:04.786Z,13.60
2018-09-24T11:27:38.789Z,13.50
2018-09-24T11:30:15.789Z,14.00
2018-09-24T11:32:49.698Z,14.60
2018-09-24T11:35:23.470Z,14.40
2018-09-24T11:37:57.278Z,14.50
2018-09-24T11:40:31.254Z,14.80
2018-09-24T11:43:05.186Z,14.60
2018-09-24T11:45:39.041Z,14.80
2018-09-24T11:48:12.773Z,15.40
2018-09-24T11:50:46.481Z,15.10
2018-09-24T11:53:20.397Z,15.20
2018-09-24T11:55:54.195Z,15.30
2018-09-24T11:58:28.030Z,15.10
2018-09-24T12:01:01.850Z,15.80
2018-09-24T12:03:35.670Z,15.40
2018-09-24T12:06:09.594Z,15.40
2018-09-24T12:08:43.496Z,15.30
2018-09-24T12:11:17.423Z,15.10
2018-09-24T12:13:51.335Z,15.50
2018-09-24T12:16:25.157Z,15.30
2018-09-24T12:18:59.118Z,15.50
2018-09-24T12:21:32.959Z,15.40
2018-09-24T12:24:06.875Z,15.40
2018-09-24T12:26:40.638Z,15.30
2018-09-24T12:29:14.588Z,14.70
2018-09-24T12:31:48.464Z,14.40
2018-09-24T12:34:22.174Z,14.30
2018-09-24T12:36:56.081Z,14.20
2018-09-24T12:39:29.939Z,14.30
2018-09-24T12:42:03.774Z,14.20
2018-09-24T12:44:37.675Z,14.10
2018-09-24T12:47:11.560Z,14.40
2018-09-24T12:49:45.311Z,14.70
2018-09-24T12:52:19.094Z,14.80
2018-09-24T12:54:52.964Z,14.50
2018-09-24T12:57:26.986Z,14.30
2018-09-24T13:00:00.870Z,14.90
2018-09-24T13:02:34.698Z,14.60
2018-09-24T13:05:08.576Z,14.30
2018-09-24T13:07:42.490Z,14.30
2018-09-24T13:10:16.389Z,14.30
2018-09-24T13:12:50.232Z,14.70
2018-09-24T13:15:24.070Z,15.00
2018-09-24T13:17:58.006Z,15.20
2018-09-24T13:20:31.928Z,15.20
2018-09-24T13:23:05.706Z,15.30
2018-09-24T13:25:39.509Z,15.30
2018-09-24T13:28:13.366Z,15.30
2018-09-24T13:30:47.180Z,15.30
2018-09-24T13:33:21.152Z,15.10
2018-09-24T13:35:54.947Z,15.00
2018-09-24T13:38:28.708Z,14.60
2018-09-24T13:41:02.529Z,14.40
2018-09-24T13:43:36.523Z,14.10
2018-09-24T13:46:10.231Z,14.50
2018-09-24T13:48:44.071Z,14.70
2018-09-24T13:51:18.025Z,14.60
2018-09-24T13:53:51.905Z,14.40
2018-09-24T13:56:25.808Z,14.30
2018-09-24T13:58:59.619Z,14.20
2018-09-24T14:01:33.644Z,14.20
2018-09-24T14:04:07.380Z,14.30
2018-09-24T14:06:41.103Z,14.20
2018-09-24T14:09:15.379Z,14.30
2018-09-24T14:11:49.175Z,14.40
2018-09-24T14:14:22.935Z,14.50
2018-09-24T14:16:56.910Z,14.50
2018-09-24T14:19:30.741Z,14.60
2018-09-24T14:22:04.647Z,14.60
2018-09-24T14:24:38.613Z,14.50
2018-09-24T14:27:16.014Z,14.60
2018-09-24T14:29:49.859Z,14.70
2018-09-24T14:32:23.551Z,14.80
2018-09-24T14:34:57.396Z,14.60
2018-09-24T14:37:31.323Z,14.50
2018-09-24T14:40:05.140Z,14.40
2018-09-24T14:42:38.939Z,14.20
2018-09-24T14:45:15.704Z,14.10
2018-09-24T14:47:49.596Z,14.10
2018-09-24T14:50:23.524Z,14.20
2018-09-24T14:52:57.365Z,14.30
2018-09-24T14:55:31.353Z,14.30
2018-09-24T14:58:05.147Z,14.30
2018-09-24T15:00:39.093Z,14.20
2018-09-24T15:03:12.971Z,14.20
2018-09-24T15:05:46.919Z,14.20
2018-09-24T15:08:20.712Z,14.20
2018-09-24T15:10:54.497Z,14.20
2018-09-24T15:13:28.271Z,14.20
2018-09-24T15:16:02.120Z,14.20
2018-09-24T15:18:36.084Z,14.10
2018-09-24T15:21:09.930Z,14.10
2018-09-24T15:23:43.720Z,14.20
2018-09-24T15:26:17.531Z,14.10
2018-09-24T15:28:51.469Z,14.20
2018-09-24T15:31:25.413Z,14.20
2018-09-24T15:33:59.317Z,14.20
2018-09-24T15:36:33.142Z,14.20
2018-09-24T15:39:07.072Z,14.20
2018-09-24T15:41:40.926Z,14.20
2018-09-24T15:44:14.604Z,14.20
2018-09-24T15:46:48.290Z,14.20
2018-09-24T15:49:22.163Z,14.20
2018-09-24T15:51:55.912Z,14.20
2018-09-24T15:54:29.847Z,14.20
2018-09-24T15:57:03.752Z,14.30
2018-09-24T15:59:37.721Z,14.40
2018-09-24T16:02:11.636Z,14.30
2018-09-24T16:04:45.680Z,14.30
2018-09-24T16:07:19.625Z,14.40
2018-09-24T16:09:53.449Z,14.50
2018-09-24T16:12:27.251Z,14.60
2018-09-24T16:15:01.254Z,14.70
2018-09-24T16:17:35.064Z,14.60
2018-09-24T16:20:08.965Z,14.60
2018-09-24T16:22:42.904Z,14.60
2018-09-24T16:25:16.728Z,14.50
2018-09-24T16:27:50.668Z,14.50
2018-09-24T16:30:24.459Z,14.40
2018-09-24T16:32:58.390Z,14.40
2018-09-24T16:35:32.356Z,14.30
2018-09-24T16:38:06.320Z,14.20
2018-09-24T16:40:40.255Z,14.20
2018-09-24T16:43:14.266Z,14.00
2018-09-24T16:45:48.076Z,13.90
2018-09-24T16:48:21.788Z,13.80
2018-09-24T16:50:55.643Z,13.70
2018-09-24T16:53:29.608Z,13.70
2018-09-24T16:56:03.433Z,13.60
2018-09-24T16:58:37.294Z,13.50
2018-09-24T17:01:11.282Z,13.50
2018-09-24T17:03:45.118Z,13.40
2018-09-24T17:06:18.908Z,13.30
2018-09-24T17:08:52.869Z,13.30
2018-09-24T17:11:26.701Z,13.20
2018-09-24T17:14:00.423Z,13.10
2018-09-24T17:16:34.360Z,13.10
2018-09-24T17:19:08.137Z,13.10
2018-09-24T17:21:42.146Z,13.10
2018-09-24T17:24:16.316Z,13.00
2018-09-24T17:26:50.321Z,13.00
2018-09-24T17:29:24.410Z,13.00
2018-09-24T17:31:58.352Z,13.00
2018-09-24T17:34:32.252Z,12.90
2018-09-24T17:37:06.192Z,12.90
2018-09-24T17:39:40.392Z,12.80
2018-09-24T17:42:14.166Z,12.80
2018-09-24T17:44:47.963Z,12.80
2018-09-24T17:47:21.947Z,12.70
2018-09-24T17:49:55.861Z,12.70
2018-09-24T17:52:29.973Z,12.60
2018-09-24T17:55:03.815Z,12.60
2018-09-24T17:57:37.711Z,12.50
2018-09-24T18:00:14.756Z,12.50
2018-09-24T18:02:48.708Z,12.40
2018-09-24T18:05:22.739Z,12.40
2018-09-24T18:07:56.543Z,12.40
2018-09-24T18:10:30.664Z,12.40
2018-09-24T18:13:04.843Z,12.30
2018-09-24T18:15:38.806Z,12.30
2018-09-24T18:18:14.464Z,12.20
2018-09-24T18:20:48.523Z,12.20
2018-09-24T18:23:22.945Z,12.10
2018-09-24T18:25:56.821Z,12.00
2018-09-24T18:28:30.928Z,12.00
2018-09-24T18:31:04.742Z,11.90
2018-09-24T18:33:38.766Z,11.90
2018-09-24T18:36:15.092Z,11.80
2018-09-24T18:38:49.034Z,11.70
2018-09-24T18:41:23.059Z,11.60
2018-09-24T18:43:57.078Z,11.60
2018-09-24T18:46:31.041Z,11.60
2018-09-24T18:49:04.861Z,11.50
2018-09-24T18:51:38.923Z,11.50
2018-09-24T18:54:15.999Z,11.30
2018-09-24T18:56:49.917Z,11.30
2018-09-24T18:59:24.021Z,11.40
2018-09-24T19:01:57.785Z,11.30
2018-09-24T19:04:31.800Z,11.40
2018-09-24T19:07:05.615Z,11.50
2018-09-24T19:09:39.405Z,11.50
2018-09-24T19:12:13.370Z,11.60
2018-09-24T19:14:47.412Z,11.60
2018-09-24T19:17:21.237Z,11.60
2018-09-24T19:19:55.078Z,11.70
2018-09-24T19:22:28.874Z,11.70
2018-09-24T19:25:02.889Z,11.70
2018-09-24T19:27:36.753Z,11.70
2018-09-24T19:30:11.030Z,11.60
2018-09-24T19:32:44.862Z,11.60
2018-09-24T19:35:18.908Z,11.60
2018-09-24T19:37:52.728Z,11.50
2018-09-24T19:40:26.648Z,11.60
2018-09-24T19:43:00.579Z,11.50
2018-09-24T19:45:34.623Z,11.50
2018-09-24T19:48:08.476Z,11.50
2018-09-24T19:50:42.425Z,11.40
2018-09-24T19:53:16.335Z,11.30
2018-09-24T19:55:50.095Z,11.20
2018-09-24T19:58:23.870Z,11.20
2018-09-24T20:00:57.864Z,11.10
2018-09-24T20:03:31.718Z,11.10
2018-09-24T20:06:05.660Z,11.10
2018-09-24T20:08:39.488Z,11.00
2018-09-24T20:11:13.456Z,10.90
2018-09-24T20:13:47.402Z,10.90
2018-09-24T20:16:21.212Z,10.80
2018-09-24T20:18:55.201Z,10.70
2018-09-24T20:21:29.189Z,10.70
2018-09-24T20:24:02.926Z,10.70
2018-09-24T20:26:36.950Z,10.80
2018-09-24T20:29:10.941Z,10.70
2018-09-24T20:31:44.858Z,10.60
2018-09-24T20:34:18.735Z,10.50
2018-09-24T20:36:52.770Z,10.60
2018-09-24T20:39:26.737Z,10.60
2018-09-24T20:42:00.716Z,10.60
2018-09-24T20:44:34.787Z,10.50
2018-09-24T20:47:08.680Z,10.30
2018-09-24T20:49:42.480Z,10.10
2018-09-24T20:52:16.279Z,10.00
2018-09-24T20:54:49.967Z,10.10
2018-09-24T20:57:23.941Z,10.00
2018-09-24T20:59:57.924Z,10.00
2018-09-24T21:02:31.888Z,10.20
2018-09-24T21:05:05.648Z,10.20
2018-09-24T21:07:39.612Z,10.00
2018-09-24T21:10:13.505Z,9.80
2018-09-24T21:12:47.307Z,9.70
2018-09-24T21:15:21.265Z,9.70
2018-09-24T21:17:55.198Z,9.70
2018-09-24T21:20:28.918Z,9.80
2018-09-24T21:23:02.768Z,9.50
2018-09-24T21:25:36.718Z,9.40
2018-09-24T21:28:10.575Z,9.40
2018-09-24T21:30:44.530Z,9.20
2018-09-24T21:33:18.546Z,9.10
2018-09-24T21:35:52.601Z,9.10
2018-09-24T21:38:26.386Z,9.20
2018-09-24T21:41:00.178Z,8.90
2018-09-24T21:43:34.003Z,8.60
2018-09-24T21:46:07.883Z,8.70
2018-09-24T21:48:41.788Z,8.40
2018-09-24T21:51:15.753Z,8.50
2018-09-24T21:53:49.490Z,8.90
2018-09-24T21:56:23.554Z,8.70
2018-09-24T21:58:57.457Z,8.90
2018-09-24T22:01:31.399Z,8.80
2018-09-24T22:04:05.274Z,8.80
2018-09-24T22:06:39.191Z,8.90
2018-09-24T22:09:18.030Z,8.90
2018-09-24T22:11:51.788Z,8.80
2018-09-24T22:14:25.591Z,8.90
2018-09-24T22:16:59.378Z,9.00
2018-09-24T22:19:33.304Z,8.80
2018-09-24T22:22:07.267Z,8.60
2018-09-24T22:24:41.204Z,8.30
2018-09-24T22:27:16.501Z,8.10
2018-09-24T22:29:50.397Z,7.60
2018-09-24T22:32:24.204Z,7.70
2018-09-24T22:34:58.136Z,7.80
2018-09-24T22:37:31.933Z,7.90
2018-09-24T22:40:05.878Z,8.00
2018-09-24T22:42:39.590Z,8.50
2018-09-24T22:45:14.192Z,8.70
2018-09-24T22:47:48.111Z,8.40
2018-09-24T22:50:22.002Z,8.40
2018-09-24T22:52:55.983Z,8.30
2018-09-24T22:55:29.783Z,7.90
2018-09-24T22:58:03.652Z,7.70
2018-09-24T23:00:37.577Z,7.40
2018-09-24T23:03:11.390Z,7.50
2018-09-24T23:05:45.338Z,7.70
2018-09-24T23:08:19.123Z,7.40
2018-09-24T23:10:53.115Z,7.10
2018-09-24T23:13:27.044Z,7.40
2018-09-24T23:16:00.816Z,7.90
2018-09-24T23:18:34.652Z,8.20
2018-09-24T23:21:08.580Z,7.80
2018-09-24T23:23:42.509Z,7.60
2018-09-24T23:26:16.281Z,7.50
2018-09-24T23:28:50.414Z,7.50
2018-09-24T23:31:24.423Z,7.50
2018-09-24T23:33:58.283Z,7.30
2018-09-24T23:36:32.037Z,7.60
2018-09-24T23:39:05.918Z,7.70
2018-09-24T23:41:39.775Z,7.80
2018-09-24T23:44:13.587Z,7.20
2018-09-24T23:46:47.534Z,7.00
2018-09-24T23:49:21.470Z,7.00
2018-09-24T23:51:55.375Z,7.30
2018-09-24T23:54:29.159Z,7.20
2018-09-24T23:57:03.108Z,7.50
2018-09-24T23:59:36.919Z,7.50
